Terminal Aerodrome Forecast
Issued by NWS

Home | Current Version | Previous Version | Text Only | Print | Product List | Glossary On
Versions: 1 2 3 4 5 6 7 8 9 10 11 12 13 14 15 16
296
FTUS46 KHNX 141126
TAFMCE
TAF
KMCE 141126Z 1412/1512 00000KT 4SM BR SCT200
      TEMPO 1412/1416 1/2SM FG VV001
     FM141800 32005KT 5SM HZ SCT200
     FM142000 34011G15KT P6SM SCT200
     FM150300 26003KT 4SM BR SKC=

USA.gov is the U.S. government's official web portal to all federal, state and local government web resources and services.